Time;durP1;ratioP1;P1;durP2;ratioP2;P2;SDS_P1;SDS_P2;PMS_P1;PMS_P2;Temp;Humidity;BMP_temperature;BMP_pressure;BME280_temperature;BME280_humidity;BME280_pressure;Samples;Min_cycle;Max_cycle;Signal;HPM_P1;HPM_P2
2021/01/18 00:00:46;;;;;;;33.47;5.93;;;;;;;;;;5088607;28;20717;-71
2021/01/18 00:03:11;;;;;;;23.80;4.67;;;;;;;;;;5072182;28;20188;-71
2021/01/18 00:05:37;;;;;;;30.73;5.03;;;;;;;;;;5084993;28;20262;-71
2021/01/18 00:08:02;;;;;;;20.87;4.50;;;;;;;;;;5077071;28;20279;-71
2021/01/18 00:10:28;;;;;;;26.93;4.90;;;;;;;;;;5084580;28;20183;-71
2021/01/18 00:12:55;;;;;;;34.23;4.80;;;;;;;;;;5087549;28;20214;-70
2021/01/18 00:15:22;;;;;;;32.53;5.63;;;;;;;;;;5080104;28;20208;-71
2021/01/18 00:17:48;;;;;;;28.93;4.97;;;;;;;;;;5083137;28;20639;-71
2021/01/18 00:20:16;;;;;;;23.97;4.40;;;;;;;;;;5091281;28;20191;-71
2021/01/18 00:22:43;;;;;;;36.23;4.67;;;;;;;;;;5086195;28;20496;-71
2021/01/18 00:25:30;;;;;;;24.80;4.70;;;;;;;;;;5083420;28;20196;-70
2021/01/18 00:27:55;;;;;;;28.73;4.50;;;;;;;;;;5086562;28;20629;-70
2021/01/18 00:30:24;;;;;;;24.20;4.33;;;;;;;;;;5091275;28;20266;-70
2021/01/18 00:32:50;;;;;;;24.43;4.00;;;;;;;;;;5085693;28;20537;-70
2021/01/18 00:35:17;;;;;;;30.57;4.80;;;;;;;;;;5088990;28;20574;-70
2021/01/18 00:37:50;;;;;;;24.63;4.40;;;;;;;;;;5087242;28;20224;-70
2021/01/18 00:40:20;;;;;;;21.70;3.90;;;;;;;;;;5087227;28;20180;-70
2021/01/18 00:42:46;;;;;;;24.43;4.57;;;;;;;;;;5100451;28;20712;-70
2021/01/18 00:45:14;;;;;;;22.97;4.57;;;;;;;;;;5063418;28;20192;-70
2021/01/18 00:47:49;;;;;;;20.00;4.30;;;;;;;;;;5071320;28;20717;-70
2021/01/18 00:50:16;;;;;;;33.13;4.87;;;;;;;;;;5061783;28;20244;-70
2021/01/18 00:52:42;;;;;;;25.83;4.60;;;;;;;;;;5090769;28;20633;-70
2021/01/18 00:55:13;;;;;;;27.57;4.47;;;;;;;;;;5078749;28;20180;-70
2021/01/18 00:57:38;;;;;;;34.60;5.87;;;;;;;;;;5103641;28;20232;-70
2021/01/18 01:00:07;;;;;;;28.67;5.63;;;;;;;;;;5079214;28;20345;-70
2021/01/18 01:02:32;;;;;;;18.23;4.27;;;;;;;;;;5102324;28;20235;-70
2021/01/18 01:04:58;;;;;;;22.40;4.93;;;;;;;;;;5079941;28;20193;-70
2021/01/18 01:07:23;;;;;;;27.87;5.17;;;;;;;;;;5090167;28;20666;-70
2021/01/18 01:09:48;;;;;;;23.37;5.10;;;;;;;;;;5078876;28;20900;-70
2021/01/18 01:12:14;;;;;;;25.43;4.83;;;;;;;;;;5087388;28;20182;-70
2021/01/18 01:14:39;;;;;;;29.70;5.70;;;;;;;;;;5082872;28;20180;-71
2021/01/18 01:17:04;;;;;;;30.20;5.27;;;;;;;;;;5091206;28;20195;-71
2021/01/18 01:19:29;;;;;;;18.67;4.77;;;;;;;;;;5085186;28;20192;-71
2021/01/18 01:21:55;;;;;;;23.90;5.93;;;;;;;;;;5089832;28;20246;-71
2021/01/18 01:24:20;;;;;;;23.07;5.57;;;;;;;;;;5089471;28;20275;-71
2021/01/18 01:26:46;;;;;;;27.27;6.13;;;;;;;;;;5079867;28;20636;-70
2021/01/18 01:29:12;;;;;;;29.73;6.13;;;;;;;;;;5089330;28;20678;-70
2021/01/18 01:31:37;;;;;;;25.47;6.13;;;;;;;;;;5085752;28;20223;-71
2021/01/18 01:34:03;;;;;;;33.47;5.87;;;;;;;;;;5086658;28;20271;-70
2021/01/18 01:36:28;;;;;;;27.57;7.47;;;;;;;;;;5080091;28;20214;-70
2021/01/18 01:38:53;;;;;;;24.27;7.10;;;;;;;;;;5087519;28;20223;-70
2021/01/18 01:41:19;;;;;;;28.00;6.63;;;;;;;;;;5081357;28;20188;-70
2021/01/18 01:43:44;;;;;;;39.20;8.00;;;;;;;;;;5088308;28;20222;-70
2021/01/18 01:46:10;;;;;;;27.60;7.50;;;;;;;;;;5092242;28;20203;-70
2021/01/18 01:48:36;;;;;;;28.33;7.63;;;;;;;;;;5079562;28;20568;-70
2021/01/18 01:51:03;;;;;;;25.33;7.20;;;;;;;;;;5102761;28;20187;-70
2021/01/18 01:53:32;;;;;;;38.40;8.20;;;;;;;;;;5079837;28;20288;-70
2021/01/18 01:55:59;;;;;;;29.53;8.73;;;;;;;;;;5087465;28;20267;-70
2021/01/18 01:58:25;;;;;;;33.30;8.73;;;;;;;;;;5064342;28;20183;-70
2021/01/18 02:00:51;;;;;;;31.83;9.60;;;;;;;;;;5088527;28;20542;-70
2021/01/18 02:03:31;;;;;;;29.63;9.50;;;;;;;;;;5086343;28;20188;-71
2021/01/18 02:05:57;;;;;;;39.57;9.33;;;;;;;;;;5087115;28;20211;-71
2021/01/18 02:08:22;;;;;;;34.37;9.47;;;;;;;;;;5078281;28;20532;-71
2021/01/18 02:10:47;;;;;;;44.43;10.17;;;;;;;;;;5087273;28;21211;-71
2021/01/18 02:13:19;;;;;;;37.10;9.53;;;;;;;;;;5076915;28;20678;-71
2021/01/18 02:16:02;;;;;;;34.80;10.97;;;;;;;;;;5087994;28;20214;-71
2021/01/18 02:18:54;;;;;;;37.40;10.80;;;;;;;;;;5078913;28;20218;-71
2021/01/18 02:22:07;;;;;;;37.13;11.17;;;;;;;;;;5084672;28;20654;-72
2021/01/18 02:25:06;;;;;;;40.53;10.97;;;;;;;;;;5055760;28;20290;-72
2021/01/18 02:27:57;;;;;;;40.07;12.40;;;;;;;;;;5089759;28;20566;-72
2021/01/18 02:30:47;;;;;;;46.60;12.40;;;;;;;;;;5073840;28;20265;-72
2021/01/18 02:33:37;;;;;;;42.40;11.53;;;;;;;;;;5084509;28;20199;-71
2021/01/18 02:36:50;;;;;;;43.13;11.57;;;;;;;;;;5078292;28;20527;-71
2021/01/18 02:39:46;;;;;;;40.97;10.87;;;;;;;;;;5066453;28;20252;-71
2021/01/18 02:42:18;;;;;;;46.70;12.70;;;;;;;;;;5083352;28;20755;-71
2021/01/18 02:44:45;;;;;;;33.03;11.00;;;;;;;;;;5078420;28;20643;-71
2021/01/18 02:47:12;;;;;;;40.47;10.87;;;;;;;;;;5077657;28;20191;-71
2021/01/18 02:49:39;;;;;;;43.87;12.90;;;;;;;;;;5075798;28;20266;-71
2021/01/18 02:52:14;;;;;;;39.00;11.33;;;;;;;;;;5086957;28;20199;-71
2021/01/18 02:54:40;;;;;;;37.23;11.33;;;;;;;;;;5080029;28;20634;-71
2021/01/18 02:57:06;;;;;;;43.83;12.87;;;;;;;;;;5083735;28;20183;-71
2021/01/18 02:59:32;;;;;;;47.40;12.53;;;;;;;;;;5086692;28;20674;-71
2021/01/18 03:02:29;;;;;;;41.40;11.47;;;;;;;;;;5060021;28;20200;-71
2021/01/18 03:05:06;;;;;;;38.20;10.80;;;;;;;;;;5087778;28;20187;-70
2021/01/18 03:07:44;;;;;;;39.67;12.50;;;;;;;;;;5072603;28;20196;-70
2021/01/18 03:10:41;;;;;;;47.70;12.30;;;;;;;;;;5089459;28;20187;-70
2021/01/18 03:13:21;;;;;;;46.00;11.93;;;;;;;;;;5046712;28;20227;-70
2021/01/18 03:15:53;;;;;;;53.57;12.30;;;;;;;;;;5081389;28;20180;-70
2021/01/18 03:18:21;;;;;;;39.03;11.50;;;;;;;;;;5084350;28;20192;-70
2021/01/18 03:20:47;;;;;;;32.60;11.17;;;;;;;;;;5082870;28;20180;-70
2021/01/18 03:23:13;;;;;;;39.17;10.97;;;;;;;;;;5077146;28;20188;-70
2021/01/18 03:25:57;;;;;;;41.63;11.17;;;;;;;;;;5087951;28;20191;-70
2021/01/18 03:28:23;;;;;;;38.33;11.80;;;;;;;;;;5079713;28;20271;-70
2021/01/18 03:30:50;;;;;;;49.30;13.40;;;;;;;;;;5084896;28;20168;-70
2021/01/18 03:33:16;;;;;;;32.90;11.40;;;;;;;;;;5080365;28;20195;-70
2021/01/18 03:35:42;;;;;;;47.33;12.40;;;;;;;;;;5087283;28;20183;-70
2021/01/18 03:38:08;;;;;;;37.47;12.07;;;;;;;;;;5076914;28;20257;-70
2021/01/18 03:40:34;;;;;;;42.00;12.20;;;;;;;;;;5091630;28;20180;-70
2021/01/18 03:43:10;;;;;;;45.67;12.70;;;;;;;;;;5079320;28;20191;-70
2021/01/18 03:45:38;;;;;;;44.30;12.73;;;;;;;;;;5087128;28;20174;-70
2021/01/18 03:48:04;;;;;;;43.17;12.53;;;;;;;;;;5077798;28;20219;-70
2021/01/18 03:50:30;;;;;;;50.20;12.07;;;;;;;;;;5086932;28;20203;-70
2021/01/18 03:52:55;;;;;;;42.33;12.43;;;;;;;;;;5080926;28;20192;-70
2021/01/18 03:55:21;;;;;;;41.47;13.43;;;;;;;;;;5094851;28;20172;-70
2021/01/18 03:57:49;;;;;;;41.47;12.77;;;;;;;;;;5079899;28;20183;-70
2021/01/18 04:00:15;;;;;;;51.70;13.73;;;;;;;;;;5096738;28;20550;-70
2021/01/18 04:02:41;;;;;;;46.50;13.50;;;;;;;;;;5087667;28;20225;-71
2021/01/18 04:05:07;;;;;;;55.10;15.30;;;;;;;;;;5083254;28;20180;-70
2021/01/18 04:07:33;;;;;;;40.87;12.30;;;;;;;;;;5087168;28;20204;-70
2021/01/18 04:09:58;;;;;;;51.97;13.70;;;;;;;;;;5084025;28;20598;-70
2021/01/18 04:12:23;;;;;;;43.57;13.27;;;;;;;;;;5090901;28;20527;-70
2021/01/18 04:14:51;;;;;;;40.47;13.53;;;;;;;;;;5082941;28;20203;-70
2021/01/18 04:17:17;;;;;;;44.33;15.30;;;;;;;;;;5089527;28;20271;-70
2021/01/18 04:19:43;;;;;;;39.13;13.43;;;;;;;;;;5081682;28;20279;-70
2021/01/18 04:22:08;;;;;;;42.77;13.50;;;;;;;;;;5091561;28;20279;-70
2021/01/18 04:24:34;;;;;;;42.57;13.90;;;;;;;;;;5079015;28;20180;-70
2021/01/18 04:27:00;;;;;;;43.70;13.67;;;;;;;;;;5088645;28;20212;-70
2021/01/18 04:29:26;;;;;;;50.33;14.27;;;;;;;;;;5081854;28;20214;-70
2021/01/18 04:31:51;;;;;;;51.90;15.00;;;;;;;;;;5088693;28;20241;-70
2021/01/18 04:34:17;;;;;;;47.33;14.63;;;;;;;;;;5089761;28;20634;-70
2021/01/18 04:36:42;;;;;;;46.83;16.23;;;;;;;;;;5076945;28;20231;-70
2021/01/18 04:39:09;;;;;;;57.10;15.83;;;;;;;;;;5073285;28;20216;-70
2021/01/18 04:41:39;;;;;;;44.33;15.10;;;;;;;;;;5080706;28;20199;-70
2021/01/18 04:44:07;;;;;;;53.17;15.53;;;;;;;;;;5095975;28;20267;-70
2021/01/18 04:46:38;;;;;;;52.97;17.23;;;;;;;;;;5079968;28;20202;-70
2021/01/18 04:49:03;;;;;;;55.07;16.73;;;;;;;;;;5072555;28;20558;-70
2021/01/18 04:51:47;;;;;;;43.13;16.90;;;;;;;;;;5080435;28;20232;-70
2021/01/18 04:54:20;;;;;;;57.03;17.70;;;;;;;;;;5087214;28;21160;-70
2021/01/18 04:57:10;;;;;;;46.87;17.77;;;;;;;;;;5078837;28;20207;-70
2021/01/18 04:59:44;;;;;;;51.37;18.27;;;;;;;;;;5088798;28;20263;-70
2021/01/18 05:02:23;;;;;;;63.13;20.23;;;;;;;;;;5079445;28;20635;-70
2021/01/18 05:04:52;;;;;;;52.17;18.90;;;;;;;;;;5090555;28;20191;-70
2021/01/18 05:07:35;;;;;;;60.20;19.47;;;;;;;;;;5080242;28;20239;-70
2021/01/18 05:10:03;;;;;;;60.47;18.80;;;;;;;;;;5093986;28;20551;-70
2021/01/18 05:12:36;;;;;;;58.80;20.17;;;;;;;;;;5085767;28;20230;-70
2021/01/18 05:15:12;;;;;;;55.47;19.93;;;;;;;;;;5074673;28;20187;-70
2021/01/18 05:17:45;;;;;;;61.07;21.13;;;;;;;;;;5082684;28;20266;-72
2021/01/18 05:20:16;;;;;;;59.27;20.33;;;;;;;;;;5088020;28;21601;-72
2021/01/18 05:22:43;;;;;;;71.27;21.63;;;;;;;;;;5079804;28;20605;-71
2021/01/18 05:25:09;;;;;;;58.60;23.87;;;;;;;;;;5092955;28;20638;-71
2021/01/18 05:28:07;;;;;;;63.00;21.13;;;;;;;;;;5086178;28;20216;-71
2021/01/18 05:30:34;;;;;;;58.67;21.83;;;;;;;;;;5085260;28;20168;-72
2021/01/18 05:33:07;;;;;;;64.70;20.93;;;;;;;;;;5080394;28;20188;-72
2021/01/18 05:35:35;;;;;;;66.53;21.93;;;;;;;;;;5088948;28;20232;-72
2021/01/18 05:38:05;;;;;;;79.00;23.60;;;;;;;;;;5078645;28;20280;-71
2021/01/18 05:40:35;;;;;;;65.03;23.20;;;;;;;;;;5087118;28;20211;-71
2021/01/18 05:43:02;;;;;;;59.00;23.47;;;;;;;;;;5076994;28;20211;-71
2021/01/18 05:45:34;;;;;;;64.30;23.17;;;;;;;;;;5084937;28;20692;-71
2021/01/18 05:48:01;;;;;;;66.83;24.20;;;;;;;;;;5086580;28;20295;-71
2021/01/18 05:50:27;;;;;;;60.67;25.33;;;;;;;;;;5061166;28;20184;-71
2021/01/18 05:52:54;;;;;;;64.47;23.43;;;;;;;;;;5089099;28;20540;-71
2021/01/18 05:55:27;;;;;;;60.07;22.67;;;;;;;;;;5071632;28;20260;-71
2021/01/18 05:58:03;;;;;;;67.07;23.27;;;;;;;;;;5068482;28;20184;-71
2021/01/18 06:00:41;;;;;;;66.00;22.60;;;;;;;;;;5062071;28;20186;-71
2021/01/18 06:03:11;;;;;;;60.67;22.93;;;;;;;;;;5088819;28;20184;-71
2021/01/18 06:05:38;;;;;;;60.97;23.37;;;;;;;;;;5081713;28;20215;-71
2021/01/18 06:08:30;;;;;;;59.70;22.70;;;;;;;;;;5091865;28;20218;-72
2021/01/18 06:11:03;;;;;;;71.03;23.07;;;;;;;;;;5075371;28;20195;-71
2021/01/18 06:13:32;;;;;;;57.77;22.30;;;;;;;;;;5072299;28;20671;-71
2021/01/18 06:16:06;;;;;;;64.27;23.00;;;;;;;;;;5066117;28;20255;-72
2021/01/18 06:18:33;;;;;;;71.80;22.90;;;;;;;;;;5091575;28;20391;-72
2021/01/18 06:21:02;;;;;;;52.70;22.47;;;;;;;;;;5066960;28;20191;-73
2021/01/18 06:23:28;;;;;;;62.13;22.97;;;;;;;;;;5083050;28;20271;-72
2021/01/18 06:25:55;;;;;;;72.80;23.03;;;;;;;;;;5081478;28;20279;-72
2021/01/18 06:28:35;;;;;;;64.00;23.53;;;;;;;;;;5092198;28;20188;-72
2021/01/18 06:31:09;;;;;;;59.03;22.53;;;;;;;;;;5065924;28;20655;-70
2021/01/18 06:33:43;;;;;;;59.87;21.03;;;;;;;;;;5076118;28;20199;-70
2021/01/18 06:36:21;;;;;;;62.97;23.23;;;;;;;;;;5066748;28;20188;-71
2021/01/18 06:38:58;;;;;;;66.47;22.57;;;;;;;;;;5081662;28;20231;-71
2021/01/18 06:41:30;;;;;;;67.00;22.83;;;;;;;;;;5078012;28;20543;-74
2021/01/18 06:43:55;;;;;;;58.93;21.87;;;;;;;;;;5068632;28;20184;-71
2021/01/18 06:46:24;;;;;;;61.80;22.93;;;;;;;;;;5059362;28;20208;-71
2021/01/18 06:48:52;;;;;;;70.73;23.83;;;;;;;;;;5069787;28;20702;-72
2021/01/18 06:51:23;;;;;;;51.43;21.17;;;;;;;;;;5063147;28;20179;-71
2021/01/18 06:53:50;;;;;;;66.43;22.13;;;;;;;;;;5069754;28;20195;-71
2021/01/18 06:56:35;;;;;;;54.10;22.43;;;;;;;;;;5069504;28;20392;-72
2021/01/18 06:59:07;;;;;;;69.23;21.40;;;;;;;;;;5087964;28;20674;-72
2021/01/18 07:01:38;;;;;;;69.07;22.83;;;;;;;;;;5092304;28;20285;-72
2021/01/18 07:04:15;;;;;;;66.53;24.43;;;;;;;;;;5080408;28;20801;-71
2021/01/18 07:06:42;;;;;;;70.20;22.77;;;;;;;;;;5085914;28;20200;-72
2021/01/18 07:09:09;;;;;;;72.10;26.50;;;;;;;;;;5059108;28;20216;-71
2021/01/18 07:11:35;;;;;;;62.17;21.97;;;;;;;;;;5083472;28;20180;-72
2021/01/18 07:14:09;;;;;;;69.37;24.47;;;;;;;;;;5076371;28;20199;-72
2021/01/18 07:16:35;;;;;;;70.50;23.70;;;;;;;;;;5071119;28;20217;-72
2021/01/18 07:19:03;;;;;;;65.30;23.73;;;;;;;;;;5060609;28;20238;-72
2021/01/18 07:21:46;;;;;;;59.10;22.30;;;;;;;;;;5087983;28;20546;-72
2021/01/18 07:24:14;;;;;;;67.87;22.73;;;;;;;;;;5057423;28;20196;-72
2021/01/18 07:26:50;;;;;;;65.33;22.47;;;;;;;;;;5085917;28;20267;-72
2021/01/18 07:29:17;;;;;;;61.17;22.63;;;;;;;;;;5075073;28;20274;-72
2021/01/18 07:31:45;;;;;;;72.63;24.00;;;;;;;;;;5085891;28;20274;-72
2021/01/18 07:34:15;;;;;;;63.30;22.57;;;;;;;;;;5074112;28;20214;-72
2021/01/18 07:36:41;;;;;;;73.33;25.10;;;;;;;;;;5083138;28;20540;-72
2021/01/18 07:39:41;;;;;;;80.87;25.60;;;;;;;;;;5041602;28;531093;-72
2021/01/18 07:42:36;;;;;;;67.27;25.10;;;;;;;;;;5084842;28;20204;-72
2021/01/18 07:45:11;;;;;;;83.77;28.03;;;;;;;;;;5062098;28;20184;-72
2021/01/18 07:47:55;;;;;;;82.60;26.97;;;;;;;;;;5085768;28;20218;-72
2021/01/18 07:50:28;;;;;;;80.33;28.37;;;;;;;;;;5076960;28;20234;-72
2021/01/18 07:53:01;;;;;;;82.00;27.47;;;;;;;;;;5085584;28;20195;-72
2021/01/18 07:55:27;;;;;;;71.80;26.83;;;;;;;;;;5076785;28;20636;-72
2021/01/18 07:57:52;;;;;;;76.57;29.20;;;;;;;;;;5082728;28;20242;-72
2021/01/18 08:00:25;;;;;;;89.97;30.27;;;;;;;;;;5078104;28;20192;-72
2021/01/18 08:03:23;;;;;;;83.53;30.77;;;;;;;;;;5084484;28;20535;-72
2021/01/18 08:05:51;;;;;;;100.63;31.33;;;;;;;;;;5076966;28;20220;-72
2021/01/18 08:08:28;;;;;;;97.73;28.87;;;;;;;;;;5085152;28;20658;-72
2021/01/18 08:10:56;;;;;;;105.83;32.40;;;;;;;;;;5072117;28;20268;-72
2021/01/18 08:13:47;;;;;;;99.63;31.17;;;;;;;;;;5086068;28;20187;-71
2021/01/18 08:16:26;;;;;;;90.10;30.80;;;;;;;;;;5073027;28;20199;-72
2021/01/18 08:18:52;;;;;;;94.87;31.07;;;;;;;;;;5085256;28;20180;-72
2021/01/18 08:21:33;;;;;;;91.87;31.57;;;;;;;;;;5078384;28;20230;-71
2021/01/18 08:24:03;;;;;;;96.23;32.67;;;;;;;;;;5084787;28;20184;-71
2021/01/18 08:26:28;;;;;;;86.50;30.77;;;;;;;;;;5075622;28;20717;-71
2021/01/18 08:28:54;;;;;;;79.57;30.13;;;;;;;;;;5084808;28;20263;-71
2021/01/18 08:31:19;;;;;;;103.33;33.73;;;;;;;;;;5084163;28;20188;-70
2021/01/18 08:33:45;;;;;;;93.17;30.93;;;;;;;;;;5076055;28;20302;-71
2021/01/18 08:36:10;;;;;;;103.03;31.83;;;;;;;;;;5089222;28;20192;-71
2021/01/18 08:38:36;;;;;;;101.63;33.90;;;;;;;;;;5075193;28;20216;-71
2021/01/18 08:41:09;;;;;;;86.27;31.17;;;;;;;;;;5091047;28;20639;-71
2021/01/18 08:43:54;;;;;;;87.37;31.67;;;;;;;;;;5079786;28;20204;-71
2021/01/18 08:46:37;;;;;;;91.53;31.17;;;;;;;;;;5086960;28;20261;-71
2021/01/18 08:49:21;;;;;;;89.67;30.83;;;;;;;;;;5081431;28;20192;-71
2021/01/18 08:51:48;;;;;;;87.20;31.17;;;;;;;;;;5085863;28;20515;-71
2021/01/18 08:54:32;;;;;;;98.87;32.37;;;;;;;;;;5079327;28;20195;-71
2021/01/18 08:57:21;;;;;;;93.43;30.37;;;;;;;;;;5084573;28;20204;-71
2021/01/18 08:59:46;;;;;;;71.73;31.13;;;;;;;;;;5060860;28;20187;-71
2021/01/18 09:02:18;;;;;;;86.90;30.90;;;;;;;;;;5087497;28;20278;-71
2021/01/18 09:04:44;;;;;;;76.73;29.83;;;;;;;;;;5078939;28;20184;-71
2021/01/18 09:07:10;;;;;;;87.13;29.73;;;;;;;;;;5089082;28;20204;-71
2021/01/18 09:09:39;;;;;;;75.40;29.73;;;;;;;;;;5080278;28;20279;-71
2021/01/18 09:12:10;;;;;;;84.00;29.77;;;;;;;;;;5087841;28;20230;-71
2021/01/18 09:14:36;;;;;;;88.43;29.00;;;;;;;;;;5079972;28;20184;-71
2021/01/18 09:17:08;;;;;;;66.87;28.00;;;;;;;;;;5088033;28;20595;-71
2021/01/18 09:19:49;;;;;;;76.17;29.50;;;;;;;;;;5079520;28;20202;-71
2021/01/18 09:22:15;;;;;;;67.27;27.03;;;;;;;;;;5088463;28;20195;-71
2021/01/18 09:24:43;;;;;;;70.27;27.20;;;;;;;;;;5080583;28;20196;-71
2021/01/18 09:27:09;;;;;;;70.07;27.50;;;;;;;;;;5086715;28;20207;-71
2021/01/18 09:29:34;;;;;;;71.50;26.00;;;;;;;;;;5078263;28;20172;-71
2021/01/18 09:32:03;;;;;;;73.50;28.93;;;;;;;;;;5085697;28;20329;-71
2021/01/18 09:34:29;;;;;;;59.37;26.37;;;;;;;;;;5087888;28;20254;-71
2021/01/18 09:37:06;;;;;;;72.43;27.47;;;;;;;;;;5062139;28;20188;-71
2021/01/18 09:39:31;;;;;;;68.67;26.90;;;;;;;;;;5090963;28;20223;-71
2021/01/18 09:41:57;;;;;;;59.97;26.57;;;;;;;;;;5077510;28;20605;-71
2021/01/18 09:44:23;;;;;;;63.37;26.07;;;;;;;;;;5072394;28;20180;-71
2021/01/18 09:46:50;;;;;;;68.03;26.00;;;;;;;;;;5075244;28;20564;-71
2021/01/18 09:49:28;;;;;;;62.60;24.83;;;;;;;;;;5090109;28;20588;-71
2021/01/18 09:51:56;;;;;;;59.77;25.10;;;;;;;;;;5075235;28;20231;-71
2021/01/18 09:54:21;;;;;;;63.40;24.30;;;;;;;;;;5069664;28;20242;-71
2021/01/18 09:56:52;;;;;;;59.93;23.97;;;;;;;;;;5077182;28;20180;-71
2021/01/18 09:59:19;;;;;;;62.73;24.47;;;;;;;;;;5086135;28;20726;-71
2021/01/18 10:01:48;;;;;;;50.37;21.80;;;;;;;;;;5076637;28;20657;-71
2021/01/18 10:04:23;;;;;;;46.97;23.70;;;;;;;;;;5088957;28;20534;-71
2021/01/18 10:07:02;;;;;;;55.53;23.27;;;;;;;;;;5077594;28;20199;-71
2021/01/18 10:09:32;;;;;;;50.63;23.27;;;;;;;;;;5089776;28;20267;-71
2021/01/18 10:11:59;;;;;;;49.27;23.50;;;;;;;;;;5078341;28;20187;-71
2021/01/18 10:14:27;;;;;;;42.57;21.77;;;;;;;;;;5087102;28;20246;-71
2021/01/18 10:16:58;;;;;;;50.23;21.87;;;;;;;;;;5078051;28;20164;-70
2021/01/18 10:19:24;;;;;;;45.53;22.30;;;;;;;;;;5088981;28;20211;-70
2021/01/18 10:21:49;;;;;;;44.23;22.30;;;;;;;;;;5085904;28;20234;-70
2021/01/18 10:24:28;;;;;;;55.70;21.17;;;;;;;;;;5080411;28;20184;-71
2021/01/18 10:27:01;;;;;;;47.53;23.03;;;;;;;;;;5084061;28;20200;-70
2021/01/18 10:29:27;;;;;;;55.80;23.30;;;;;;;;;;5082001;28;20184;-70
2021/01/18 10:31:53;;;;;;;46.50;23.13;;;;;;;;;;5085894;28;21163;-70
2021/01/18 10:34:21;;;;;;;47.67;23.70;;;;;;;;;;5083314;28;20198;-70
2021/01/18 10:36:49;;;;;;;56.17;24.90;;;;;;;;;;5085338;28;20168;-70
2021/01/18 10:39:30;;;;;;;45.60;23.90;;;;;;;;;;5078269;28;20307;-70
2021/01/18 10:42:03;;;;;;;50.83;22.80;;;;;;;;;;5082356;28;20178;-70
2021/01/18 10:44:29;;;;;;;46.70;23.27;;;;;;;;;;5071370;28;20597;-71
2021/01/18 10:46:55;;;;;;;57.63;23.33;;;;;;;;;;5083197;28;20188;-70
2021/01/18 10:49:28;;;;;;;45.23;23.53;;;;;;;;;;5079689;28;20196;-70
2021/01/18 10:52:29;;;;;;;43.40;21.30;;;;;;;;;;5084289;28;20196;-70
2021/01/18 10:54:58;;;;;;;46.43;21.20;;;;;;;;;;5035376;28;20199;-70
2021/01/18 10:57:24;;;;;;;45.20;22.13;;;;;;;;;;5086190;28;20686;-70
2021/01/18 11:00:09;;;;;;;36.47;19.97;;;;;;;;;;5075533;28;20184;-70
2021/01/18 11:02:36;;;;;;;44.97;20.97;;;;;;;;;;5085548;28;20659;-70
2021/01/18 11:05:03;;;;;;;41.23;20.70;;;;;;;;;;5075600;28;20645;-70
2021/01/18 11:07:30;;;;;;;42.27;19.90;;;;;;;;;;5088177;28;20196;-70
2021/01/18 11:09:59;;;;;;;41.27;19.83;;;;;;;;;;5076306;28;20180;-70
2021/01/18 11:12:30;;;;;;;44.83;19.83;;;;;;;;;;5087304;28;20629;-70
2021/01/18 11:15:04;;;;;;;35.80;19.23;;;;;;;;;;4370029;28;10000758;-71
2021/01/18 11:17:30;;;;;;;42.20;18.30;;;;;;;;;;5078726;28;20194;-70
2021/01/18 11:19:55;;;;;;;46.77;18.13;;;;;;;;;;5073317;28;20218;-70
2021/01/18 11:22:21;;;;;;;38.83;19.23;;;;;;;;;;5084534;28;20495;-70
2021/01/18 11:24:47;;;;;;;32.40;17.53;;;;;;;;;;5082573;28;20190;-70
2021/01/18 11:27:12;;;;;;;41.27;17.87;;;;;;;;;;5059026;28;20747;-70
2021/01/18 11:29:37;;;;;;;36.83;18.17;;;;;;;;;;5079580;28;20191;-70
2021/01/18 11:32:03;;;;;;;36.73;17.33;;;;;;;;;;5074691;28;20196;-70
2021/01/18 11:34:29;;;;;;;38.30;18.17;;;;;;;;;;5065743;28;20219;-70
2021/01/18 11:36:54;;;;;;;40.30;18.27;;;;;;;;;;5076676;28;20266;-70
2021/01/18 11:39:20;;;;;;;34.07;16.97;;;;;;;;;;5060025;28;20232;-70
2021/01/18 11:41:45;;;;;;;35.63;17.53;;;;;;;;;;5060705;28;20516;-70
2021/01/18 11:44:11;;;;;;;35.53;16.10;;;;;;;;;;5063267;28;20193;-70
2021/01/18 11:46:36;;;;;;;29.70;15.73;;;;;;;;;;5050955;28;20819;-70
2021/01/18 11:49:02;;;;;;;36.13;15.43;;;;;;;;;;5063912;28;20184;-70
2021/01/18 11:51:28;;;;;;;36.10;16.70;;;;;;;;;;5047128;28;20186;-70
2021/01/18 11:53:53;;;;;;;33.27;17.20;;;;;;;;;;5062094;28;20203;-70
2021/01/18 11:56:18;;;;;;;29.13;15.23;;;;;;;;;;5063964;28;20169;-70
2021/01/18 11:58:44;;;;;;;38.97;17.63;;;;;;;;;;5052553;28;20212;-71
2021/01/18 12:01:10;;;;;;;38.23;16.40;;;;;;;;;;5065015;28;20295;-70
2021/01/18 12:03:35;;;;;;;37.43;15.87;;;;;;;;;;5026442;28;20185;-70
2021/01/18 12:06:01;;;;;;;33.30;16.20;;;;;;;;;;5063102;28;20321;-70
2021/01/18 12:08:26;;;;;;;28.30;15.67;;;;;;;;;;5053914;28;20594;-70
2021/01/18 12:10:52;;;;;;;34.30;15.97;;;;;;;;;;5067222;28;20258;-70
2021/01/18 12:13:17;;;;;;;39.53;16.50;;;;;;;;;;5061821;28;20712;-70
2021/01/18 12:15:44;;;;;;;36.73;15.47;;;;;;;;;;5069679;28;20670;-70
2021/01/18 12:18:10;;;;;;;34.43;14.53;;;;;;;;;;5060465;28;20269;-70
2021/01/18 12:20:35;;;;;;;30.77;15.20;;;;;;;;;;5068727;28;20704;-70
2021/01/18 12:23:00;;;;;;;35.27;15.20;;;;;;;;;;5058928;28;20204;-71
2021/01/18 12:25:26;;;;;;;28.87;14.03;;;;;;;;;;5043746;28;20568;-70
2021/01/18 12:27:54;;;;;;;32.50;15.00;;;;;;;;;;5066331;28;20212;-70
2021/01/18 12:30:21;;;;;;;32.70;14.47;;;;;;;;;;5061090;28;20649;-70
2021/01/18 12:32:46;;;;;;;33.20;15.23;;;;;;;;;;5065514;28;20259;-70
2021/01/18 12:35:12;;;;;;;30.17;14.97;;;;;;;;;;5060476;28;20283;-70
2021/01/18 12:37:37;;;;;;;26.70;13.73;;;;;;;;;;5074239;28;20642;-70
2021/01/18 12:40:08;;;;;;;30.63;13.97;;;;;;;;;;5080573;28;20196;-70
2021/01/18 12:42:34;;;;;;;26.33;13.43;;;;;;;;;;5088605;28;20275;-71
2021/01/18 12:44:59;;;;;;;30.53;13.87;;;;;;;;;;5060042;28;20203;-71
2021/01/18 12:47:25;;;;;;;33.37;13.07;;;;;;;;;;5086699;28;20204;-71
2021/01/18 12:49:50;;;;;;;24.97;13.97;;;;;;;;;;5064786;28;20237;-71
2021/01/18 12:52:15;;;;;;;31.90;13.50;;;;;;;;;;5069859;28;20204;-71
2021/01/18 12:54:41;;;;;;;28.20;12.73;;;;;;;;;;5080514;28;20651;-71
2021/01/18 12:57:06;;;;;;;33.00;13.43;;;;;;;;;;5085436;28;20238;-71
2021/01/18 12:59:31;;;;;;;29.03;12.33;;;;;;;;;;5087072;28;20191;-71
2021/01/18 13:01:57;;;;;;;25.30;11.90;;;;;;;;;;5079053;28;20241;-71
2021/01/18 13:04:22;;;;;;;25.43;12.10;;;;;;;;;;5089645;28;20267;-71
2021/01/18 13:06:49;;;;;;;29.87;12.03;;;;;;;;;;5077562;28;20235;-71
2021/01/18 13:09:17;;;;;;;29.17;12.73;;;;;;;;;;5087433;28;20660;-71
2021/01/18 13:11:51;;;;;;;26.00;12.13;;;;;;;;;;5079171;28;20184;-71
2021/01/18 13:14:17;;;;;;;29.40;12.93;;;;;;;;;;5089256;28;20175;-71
2021/01/18 13:16:43;;;;;;;29.43;12.27;;;;;;;;;;5077829;28;20179;-71
2021/01/18 13:19:08;;;;;;;32.80;12.40;;;;;;;;;;5088145;28;20529;-71
2021/01/18 13:21:34;;;;;;;25.30;12.10;;;;;;;;;;5078986;28;20530;-71
2021/01/18 13:23:59;;;;;;;26.07;12.40;;;;;;;;;;5089382;28;20180;-71
2021/01/18 13:26:24;;;;;;;26.33;12.23;;;;;;;;;;5077642;28;25932;-71
2021/01/18 13:28:51;;;;;;;20.97;12.23;;;;;;;;;;5088301;28;20589;-70
2021/01/18 13:31:18;;;;;;;32.90;12.40;;;;;;;;;;5089531;28;20647;-71
2021/01/18 13:33:48;;;;;;;29.43;12.13;;;;;;;;;;5078352;28;20597;-71
2021/01/18 13:36:21;;;;;;;26.47;12.43;;;;;;;;;;5086280;28;20192;-71
2021/01/18 13:38:47;;;;;;;24.43;11.63;;;;;;;;;;5078339;28;20586;-71
2021/01/18 13:41:14;;;;;;;24.63;12.20;;;;;;;;;;5088771;28;20689;-69
2021/01/18 13:43:39;;;;;;;24.07;12.77;;;;;;;;;;5079206;28;20647;-69
2021/01/18 13:46:07;;;;;;;27.77;12.00;;;;;;;;;;5086779;28;20263;-69
2021/01/18 13:48:33;;;;;;;21.93;11.13;;;;;;;;;;5079341;28;20236;-70
2021/01/18 13:50:58;;;;;;;30.57;12.57;;;;;;;;;;5085551;28;20592;-70
2021/01/18 13:53:24;;;;;;;23.63;11.60;;;;;;;;;;5062998;28;20585;-70
2021/01/18 13:55:49;;;;;;;23.17;11.23;;;;;;;;;;4380342;28;10000760;-70
2021/01/18 13:58:15;;;;;;;29.33;12.23;;;;;;;;;;5077059;28;20183;-71
2021/01/18 14:00:40;;;;;;;27.20;12.73;;;;;;;;;;5082467;28;20199;-71
2021/01/18 14:03:05;;;;;;;25.90;11.93;;;;;;;;;;5076993;28;20229;-71
2021/01/18 14:05:31;;;;;;;19.57;11.20;;;;;;;;;;5080461;28;20299;-71
2021/01/18 14:07:56;;;;;;;23.40;11.07;;;;;;;;;;5086055;28;20326;-71
2021/01/18 14:10:21;;;;;;;21.83;11.80;;;;;;;;;;5073647;28;20237;-71
2021/01/18 14:12:47;;;;;;;22.70;10.80;;;;;;;;;;5084296;28;20237;-71
2021/01/18 14:15:14;;;;;;;19.63;10.60;;;;;;;;;;5075417;28;20283;-71
2021/01/18 14:17:39;;;;;;;22.00;11.37;;;;;;;;;;5080182;28;20632;-69
2021/01/18 14:20:05;;;;;;;20.57;11.33;;;;;;;;;;5073864;28;20198;-70
2021/01/18 14:22:31;;;;;;;24.13;11.23;;;;;;;;;;5084793;28;20182;-70
2021/01/18 14:24:56;;;;;;;26.70;11.07;;;;;;;;;;5071885;28;20208;-70
2021/01/18 14:27:21;;;;;;;23.87;11.03;;;;;;;;;;5066012;28;20223;-70
2021/01/18 14:29:47;;;;;;;21.97;11.00;;;;;;;;;;5071925;28;21395;-70
2021/01/18 14:32:12;;;;;;;26.40;11.03;;;;;;;;;;5085144;28;20188;-70
2021/01/18 14:34:37;;;;;;;17.40;9.60;;;;;;;;;;5073235;28;20252;-70